Moyer Aviation Incorporated

Pocono Mountains Airport

188 Airport Rd. Tobyhanna, PA 18466 

P: 570-839-7161
800-321-5890
F: 570-839-7162

Weather

Weather

Pocono Weather

KMPO 272153Z AUTO 28008KT 10SM CLR 13/09 A2994 RMK AO2 SLP148 T01330089

Allentown Weather

KABE 272151Z 20004KT 8SM FEW015 14/09 A2997 RMK AO2 SLP149 T01390089

Wilkes-Barre Weather

KAVP 272154Z 25003KT 8SM CLR 14/09 A2994 RMK AO2 SLP138 T01390089


* required field

Contact Us